sensor_id;sensor_type;location;lat;lon;timestamp;temperature;humidity
12700;DHT22;6414;49.570;6.060;2022-09-29T00:02:06;6.70;99.90
12700;DHT22;6414;49.570;6.060;2022-09-29T00:04:51;6.70;99.90
12700;DHT22;6414;49.570;6.060;2022-09-29T00:07:36;6.80;99.90
12700;DHT22;6414;49.570;6.060;2022-09-29T00:10:21;6.80;99.90
12700;DHT22;6414;49.570;6.060;2022-09-29T00:13:07;6.80;99.90
12700;DHT22;6414;49.570;6.060;2022-09-29T00:15:58;6.80;99.90
12700;DHT22;6414;49.570;6.060;2022-09-29T00:18:44;6.40;99.90
12700;DHT22;6414;49.570;6.060;2022-09-29T00:21:29;6.40;99.90
12700;DHT22;6414;49.570;6.060;2022-09-29T00:24:15;6.40;99.90
12700;DHT22;6414;49.570;6.060;2022-09-29T00:27:01;6.30;99.90
12700;DHT22;6414;49.570;6.060;2022-09-29T00:29:46;6.30;99.90
12700;DHT22;6414;49.570;6.060;2022-09-29T00:32:32;6.30;99.90
12700;DHT22;6414;49.570;6.060;2022-09-29T00:35:17;6.30;99.90
12700;DHT22;6414;49.570;6.060;2022-09-29T00:38:03;6.30;99.90
12700;DHT22;6414;49.570;6.060;2022-09-29T00:40:49;6.30;99.90
12700;DHT22;6414;49.570;6.060;2022-09-29T00:44:00;6.40;99.90
12700;DHT22;6414;49.570;6.060;2022-09-29T00:49:42;6.30;99.90
12700;DHT22;6414;49.570;6.060;2022-09-29T00:52:39;6.10;99.90
12700;DHT22;6414;49.570;6.060;2022-09-29T00:55:27;6.10;99.90
12700;DHT22;6414;49.570;6.060;2022-09-29T00:58:39;5.90;99.90
12700;DHT22;6414;49.570;6.060;2022-09-29T01:01:25;5.90;99.90
12700;DHT22;6414;49.570;6.060;2022-09-29T01:04:14;6.00;99.90
12700;DHT22;6414;49.570;6.060;2022-09-29T01:06:58;6.00;99.90
12700;DHT22;6414;49.570;6.060;2022-09-29T01:09:43;6.10;99.90
12700;DHT22;6414;49.570;6.060;2022-09-29T01:12:29;6.20;99.90
12700;DHT22;6414;49.570;6.060;2022-09-29T01:15:15;6.30;99.90
12700;DHT22;6414;49.570;6.060;2022-09-29T01:18:00;6.30;99.90
12700;DHT22;6414;49.570;6.060;2022-09-29T01:20:52;6.10;99.90
12700;DHT22;6414;49.570;6.060;2022-09-29T01:23:38;6.00;99.90
12700;DHT22;6414;49.570;6.060;2022-09-29T01:26:39;6.00;99.90
12700;DHT22;6414;49.570;6.060;2022-09-29T01:29:27;6.10;99.90
12700;DHT22;6414;49.570;6.060;2022-09-29T01:35:43;6.20;99.90
12700;DHT22;6414;49.570;6.060;2022-09-29T01:41:15;6.10;99.90
12700;DHT22;6414;49.570;6.060;2022-09-29T01:44:13;6.20;99.90
12700;DHT22;6414;49.570;6.060;2022-09-29T01:46:59;6.10;99.90
12700;DHT22;6414;49.570;6.060;2022-09-29T01:49:44;5.90;99.90
12700;DHT22;6414;49.570;6.060;2022-09-29T01:52:32;5.70;99.90
12700;DHT22;6414;49.570;6.060;2022-09-29T01:55:18;5.80;99.90
12700;DHT22;6414;49.570;6.060;2022-09-29T01:58:05;5.80;99.90
12700;DHT22;6414;49.570;6.060;2022-09-29T02:00:51;5.80;99.90
12700;DHT22;6414;49.570;6.060;2022-09-29T02:03:45;5.80;99.90
12700;DHT22;6414;49.570;6.060;2022-09-29T02:06:40;5.90;99.90
12700;DHT22;6414;49.570;6.060;2022-09-29T02:09:27;6.00;99.90
12700;DHT22;6414;49.570;6.060;2022-09-29T02:12:11;6.00;99.90
12700;DHT22;6414;49.570;6.060;2022-09-29T02:14:55;5.90;99.90
12700;DHT22;6414;49.570;6.060;2022-09-29T02:17:42;5.90;99.90
12700;DHT22;6414;49.570;6.060;2022-09-29T02:20:27;5.80;99.90
12700;DHT22;6414;49.570;6.060;2022-09-29T02:23:13;5.80;99.90
12700;DHT22;6414;49.570;6.060;2022-09-29T02:28:38;5.90;99.90
12700;DHT22;6414;49.570;6.060;2022-09-29T02:31:25;5.80;99.90
12700;DHT22;6414;49.570;6.060;2022-09-29T02:34:11;5.50;99.90
12700;DHT22;6414;49.570;6.060;2022-09-29T02:37:01;5.30;99.90
12700;DHT22;6414;49.570;6.060;2022-09-29T02:39:47;5.10;99.90
12700;DHT22;6414;49.570;6.060;2022-09-29T02:45:40;5.00;99.90
12700;DHT22;6414;49.570;6.060;2022-09-29T02:49:02;5.00;99.90
12700;DHT22;6414;49.570;6.060;2022-09-29T02:51:47;4.80;99.90
12700;DHT22;6414;49.570;6.060;2022-09-29T03:00:29;5.30;99.90
12700;DHT22;6414;49.570;6.060;2022-09-29T03:03:14;5.20;99.90
12700;DHT22;6414;49.570;6.060;2022-09-29T03:05:59;5.10;99.90
12700;DHT22;6414;49.570;6.060;2022-09-29T03:08:44;5.20;99.90
12700;DHT22;6414;49.570;6.060;2022-09-29T03:11:30;5.20;99.90
12700;DHT22;6414;49.570;6.060;2022-09-29T03:14:15;5.00;99.90
12700;DHT22;6414;49.570;6.060;2022-09-29T03:17:00;4.90;99.90
12700;DHT22;6414;49.570;6.060;2022-09-29T03:19:46;5.00;99.90
12700;DHT22;6414;49.570;6.060;2022-09-29T03:22:31;4.90;99.90
12700;DHT22;6414;49.570;6.060;2022-09-29T03:25:17;4.80;99.90
12700;DHT22;6414;49.570;6.060;2022-09-29T03:28:02;4.70;99.90
12700;DHT22;6414;49.570;6.060;2022-09-29T03:30:47;4.80;99.90
12700;DHT22;6414;49.570;6.060;2022-09-29T03:33:33;4.60;99.90
12700;DHT22;6414;49.570;6.060;2022-09-29T03:36:18;4.50;99.90
12700;DHT22;6414;49.570;6.060;2022-09-29T03:39:04;4.40;99.90
12700;DHT22;6414;49.570;6.060;2022-09-29T03:41:49;4.20;99.90
12700;DHT22;6414;49.570;6.060;2022-09-29T03:44:36;4.40;99.90
12700;DHT22;6414;49.570;6.060;2022-09-29T03:47:21;4.40;99.90
12700;DHT22;6414;49.570;6.060;2022-09-29T03:50:07;4.50;99.90
12700;DHT22;6414;49.570;6.060;2022-09-29T03:52:52;4.70;99.90
12700;DHT22;6414;49.570;6.060;2022-09-29T03:55:38;4.90;99.90
12700;DHT22;6414;49.570;6.060;2022-09-29T03:58:24;4.90;99.90
12700;DHT22;6414;49.570;6.060;2022-09-29T04:01:09;5.00;99.90
12700;DHT22;6414;49.570;6.060;2022-09-29T04:03:54;5.10;99.90
12700;DHT22;6414;49.570;6.060;2022-09-29T04:06:40;5.00;99.90
12700;DHT22;6414;49.570;6.060;2022-09-29T04:09:25;5.00;99.90
12700;DHT22;6414;49.570;6.060;2022-09-29T04:12:11;5.00;99.90
12700;DHT22;6414;49.570;6.060;2022-09-29T04:14:56;5.10;99.90
12700;DHT22;6414;49.570;6.060;2022-09-29T04:17:42;5.00;99.90
12700;DHT22;6414;49.570;6.060;2022-09-29T04:20:27;4.90;99.90
12700;DHT22;6414;49.570;6.060;2022-09-29T04:23:13;4.90;99.90
12700;DHT22;6414;49.570;6.060;2022-09-29T04:25:59;4.80;99.90
12700;DHT22;6414;49.570;6.060;2022-09-29T04:28:44;4.60;99.90
12700;DHT22;6414;49.570;6.060;2022-09-29T04:31:29;4.70;99.90
12700;DHT22;6414;49.570;6.060;2022-09-29T04:34:15;5.00;99.90
12700;DHT22;6414;49.570;6.060;2022-09-29T04:37:01;5.00;99.90
12700;DHT22;6414;49.570;6.060;2022-09-29T04:39:46;5.10;99.90
12700;DHT22;6414;49.570;6.060;2022-09-29T04:42:32;5.10;99.90
12700;DHT22;6414;49.570;6.060;2022-09-29T04:45:17;5.10;99.90
12700;DHT22;6414;49.570;6.060;2022-09-29T04:48:02;5.30;99.90
12700;DHT22;6414;49.570;6.060;2022-09-29T04:50:48;5.40;99.90
12700;DHT22;6414;49.570;6.060;2022-09-29T04:53:33;5.30;99.90
12700;DHT22;6414;49.570;6.060;2022-09-29T04:56:18;5.20;99.90
12700;DHT22;6414;49.570;6.060;2022-09-29T04:59:04;5.30;99.90
12700;DHT22;6414;49.570;6.060;2022-09-29T05:01:49;5.30;99.90
12700;DHT22;6414;49.570;6.060;2022-09-29T05:04:34;5.30;99.90
12700;DHT22;6414;49.570;6.060;2022-09-29T05:07:19;5.40;99.90
12700;DHT22;6414;49.570;6.060;2022-09-29T05:10:05;5.40;99.90
12700;DHT22;6414;49.570;6.060;2022-09-29T05:12:50;5.50;99.90
12700;DHT22;6414;49.570;6.060;2022-09-29T05:15:35;5.50;99.90
12700;DHT22;6414;49.570;6.060;2022-09-29T05:18:20;5.50;99.90
12700;DHT22;6414;49.570;6.060;2022-09-29T05:21:06;5.50;99.90
12700;DHT22;6414;49.570;6.060;2022-09-29T05:23:52;5.50;99.90
12700;DHT22;6414;49.570;6.060;2022-09-29T05:26:38;5.50;99.90
12700;DHT22;6414;49.570;6.060;2022-09-29T05:29:23;5.50;99.90
12700;DHT22;6414;49.570;6.060;2022-09-29T05:32:09;5.70;99.90
12700;DHT22;6414;49.570;6.060;2022-09-29T05:34:54;5.70;99.90
12700;DHT22;6414;49.570;6.060;2022-09-29T05:37:40;5.80;99.90
12700;DHT22;6414;49.570;6.060;2022-09-29T05:40:25;5.70;99.90
12700;DHT22;6414;49.570;6.060;2022-09-29T05:43:11;5.70;99.90
12700;DHT22;6414;49.570;6.060;2022-09-29T05:46:01;5.40;99.90
12700;DHT22;6414;49.570;6.060;2022-09-29T05:48:46;5.40;99.90
12700;DHT22;6414;49.570;6.060;2022-09-29T05:51:32;5.30;99.90
12700;DHT22;6414;49.570;6.060;2022-09-29T05:54:17;5.30;99.90
12700;DHT22;6414;49.570;6.060;2022-09-29T05:57:03;5.10;99.90
12700;DHT22;6414;49.570;6.060;2022-09-29T05:59:49;5.10;99.90
12700;DHT22;6414;49.570;6.060;2022-09-29T06:02:35;5.10;99.90
12700;DHT22;6414;49.570;6.060;2022-09-29T06:05:21;5.10;99.90
12700;DHT22;6414;49.570;6.060;2022-09-29T06:08:06;5.20;99.90
12700;DHT22;6414;49.570;6.060;2022-09-29T06:10:52;5.30;99.90
12700;DHT22;6414;49.570;6.060;2022-09-29T06:13:37;5.30;99.90
12700;DHT22;6414;49.570;6.060;2022-09-29T06:16:24;5.20;99.90
12700;DHT22;6414;49.570;6.060;2022-09-29T06:19:08;5.20;99.90
12700;DHT22;6414;49.570;6.060;2022-09-29T06:21:54;5.20;99.90
12700;DHT22;6414;49.570;6.060;2022-09-29T06:24:39;5.20;99.90
12700;DHT22;6414;49.570;6.060;2022-09-29T06:27:25;5.50;99.90
12700;DHT22;6414;49.570;6.060;2022-09-29T06:30:12;5.80;99.90
12700;DHT22;6414;49.570;6.060;2022-09-29T06:32:58;5.90;99.90
12700;DHT22;6414;49.570;6.060;2022-09-29T06:35:46;6.00;99.90
12700;DHT22;6414;49.570;6.060;2022-09-29T06:38:50;6.10;99.90
12700;DHT22;6414;49.570;6.060;2022-09-29T06:41:35;6.20;99.90
12700;DHT22;6414;49.570;6.060;2022-09-29T06:44:22;6.30;99.90
12700;DHT22;6414;49.570;6.060;2022-09-29T06:47:07;6.50;99.90
12700;DHT22;6414;49.570;6.060;2022-09-29T06:49:52;6.60;99.90
12700;DHT22;6414;49.570;6.060;2022-09-29T06:52:37;6.60;99.90
12700;DHT22;6414;49.570;6.060;2022-09-29T06:55:23;6.70;99.90
12700;DHT22;6414;49.570;6.060;2022-09-29T06:58:08;6.80;99.90
12700;DHT22;6414;49.570;6.060;2022-09-29T07:00:54;6.70;99.90
12700;DHT22;6414;49.570;6.060;2022-09-29T07:03:39;6.40;99.90
12700;DHT22;6414;49.570;6.060;2022-09-29T07:06:25;6.50;99.90
12700;DHT22;6414;49.570;6.060;2022-09-29T07:09:12;6.70;99.90
12700;DHT22;6414;49.570;6.060;2022-09-29T07:11:57;6.70;99.90
12700;DHT22;6414;49.570;6.060;2022-09-29T07:14:42;6.70;99.90
12700;DHT22;6414;49.570;6.060;2022-09-29T07:17:28;6.80;99.90
12700;DHT22;6414;49.570;6.060;2022-09-29T07:20:13;6.80;99.90
12700;DHT22;6414;49.570;6.060;2022-09-29T07:22:59;6.70;99.90
12700;DHT22;6414;49.570;6.060;2022-09-29T07:25:45;6.80;99.90
12700;DHT22;6414;49.570;6.060;2022-09-29T07:28:30;6.80;99.90
12700;DHT22;6414;49.570;6.060;2022-09-29T07:31:17;6.70;99.90
12700;DHT22;6414;49.570;6.060;2022-09-29T07:34:02;6.60;99.90
12700;DHT22;6414;49.570;6.060;2022-09-29T07:36:47;6.50;99.90
12700;DHT22;6414;49.570;6.060;2022-09-29T07:39:33;6.50;99.90
12700;DHT22;6414;49.570;6.060;2022-09-29T07:42:19;6.60;99.90
12700;DHT22;6414;49.570;6.060;2022-09-29T07:45:04;6.60;99.90
12700;DHT22;6414;49.570;6.060;2022-09-29T07:47:50;6.70;99.90
12700;DHT22;6414;49.570;6.060;2022-09-29T07:50:35;6.80;99.90
12700;DHT22;6414;49.570;6.060;2022-09-29T07:53:21;6.90;99.90
12700;DHT22;6414;49.570;6.060;2022-09-29T07:56:11;7.20;99.90
12700;DHT22;6414;49.570;6.060;2022-09-29T07:58:56;7.20;99.90
12700;DHT22;6414;49.570;6.060;2022-09-29T08:01:41;7.30;99.90
12700;DHT22;6414;49.570;6.060;2022-09-29T08:04:26;7.40;99.90
12700;DHT22;6414;49.570;6.060;2022-09-29T08:07:12;7.50;99.90
12700;DHT22;6414;49.570;6.060;2022-09-29T08:09:57;7.40;99.90
12700;DHT22;6414;49.570;6.060;2022-09-29T08:12:43;7.40;99.90
12700;DHT22;6414;49.570;6.060;2022-09-29T08:15:29;7.50;99.90
12700;DHT22;6414;49.570;6.060;2022-09-29T08:18:14;7.50;99.90
12700;DHT22;6414;49.570;6.060;2022-09-29T08:21:00;7.80;99.90
12700;DHT22;6414;49.570;6.060;2022-09-29T08:23:46;7.90;99.90
12700;DHT22;6414;49.570;6.060;2022-09-29T08:26:33;7.90;99.90
12700;DHT22;6414;49.570;6.060;2022-09-29T08:29:17;8.30;99.90
12700;DHT22;6414;49.570;6.060;2022-09-29T08:32:02;8.40;99.90
12700;DHT22;6414;49.570;6.060;2022-09-29T08:34:48;8.60;99.90
12700;DHT22;6414;49.570;6.060;2022-09-29T08:37:34;8.50;99.90
12700;DHT22;6414;49.570;6.060;2022-09-29T08:40:19;8.50;99.90
12700;DHT22;6414;49.570;6.060;2022-09-29T08:43:15;8.80;99.90
12700;DHT22;6414;49.570;6.060;2022-09-29T08:46:10;9.10;99.90
12700;DHT22;6414;49.570;6.060;2022-09-29T08:48:51;9.30;99.90
12700;DHT22;6414;49.570;6.060;2022-09-29T08:51:44;9.00;99.90
12700;DHT22;6414;49.570;6.060;2022-09-29T08:54:34;9.30;99.90
12700;DHT22;6414;49.570;6.060;2022-09-29T08:57:19;9.50;99.90
12700;DHT22;6414;49.570;6.060;2022-09-29T09:00:05;9.80;99.90
12700;DHT22;6414;49.570;6.060;2022-09-29T09:03:05;10.10;99.90
12700;DHT22;6414;49.570;6.060;2022-09-29T09:05:59;10.20;99.90
12700;DHT22;6414;49.570;6.060;2022-09-29T09:08:54;10.40;99.90
12700;DHT22;6414;49.570;6.060;2022-09-29T09:11:55;10.60;99.90
12700;DHT22;6414;49.570;6.060;2022-09-29T09:14:52;10.60;99.90
12700;DHT22;6414;49.570;6.060;2022-09-29T09:18:02;10.80;99.90
12700;DHT22;6414;49.570;6.060;2022-09-29T09:20:51;11.30;99.90
12700;DHT22;6414;49.570;6.060;2022-09-29T09:23:46;11.30;99.90
12700;DHT22;6414;49.570;6.060;2022-09-29T09:26:40;11.90;99.90
12700;DHT22;6414;49.570;6.060;2022-09-29T09:29:34;12.60;99.90
12700;DHT22;6414;49.570;6.060;2022-09-29T09:32:23;12.70;99.90
12700;DHT22;6414;49.570;6.060;2022-09-29T09:35:11;12.70;99.90
12700;DHT22;6414;49.570;6.060;2022-09-29T09:37:52;12.30;99.90
12700;DHT22;6414;49.570;6.060;2022-09-29T09:40:40;13.00;99.90
12700;DHT22;6414;49.570;6.060;2022-09-29T09:43:30;12.70;99.90
12700;DHT22;6414;49.570;6.060;2022-09-29T09:46:13;12.40;99.90
12700;DHT22;6414;49.570;6.060;2022-09-29T09:52:07;12.00;99.90
12700;DHT22;6414;49.570;6.060;2022-09-29T09:54:55;11.10;99.90
12700;DHT22;6414;49.570;6.060;2022-09-29T09:58:23;11.20;99.90
12700;DHT22;6414;49.570;6.060;2022-09-29T10:01:02;11.40;99.90
12700;DHT22;6414;49.570;6.060;2022-09-29T10:03:47;11.00;99.90
12700;DHT22;6414;49.570;6.060;2022-09-29T10:06:33;11.00;99.90
12700;DHT22;6414;49.570;6.060;2022-09-29T10:09:18;10.90;99.90
12700;DHT22;6414;49.570;6.060;2022-09-29T10:12:03;10.90;99.90
12700;DHT22;6414;49.570;6.060;2022-09-29T10:14:53;11.20;99.90
12700;DHT22;6414;49.570;6.060;2022-09-29T10:17:39;11.00;99.90
12700;DHT22;6414;49.570;6.060;2022-09-29T10:20:33;11.20;99.90
12700;DHT22;6414;49.570;6.060;2022-09-29T10:23:39;11.50;99.90
12700;DHT22;6414;49.570;6.060;2022-09-29T10:28:56;11.30;99.90
12700;DHT22;6414;49.570;6.060;2022-09-29T10:31:39;11.30;99.90
12700;DHT22;6414;49.570;6.060;2022-09-29T10:34:25;11.20;99.90
12700;DHT22;6414;49.570;6.060;2022-09-29T10:37:23;11.30;99.90
12700;DHT22;6414;49.570;6.060;2022-09-29T10:42:55;11.60;99.90
12700;DHT22;6414;49.570;6.060;2022-09-29T10:45:45;11.50;99.90
12700;DHT22;6414;49.570;6.060;2022-09-29T10:48:25;11.30;99.90
12700;DHT22;6414;49.570;6.060;2022-09-29T10:51:11;11.10;99.90
12700;DHT22;6414;49.570;6.060;2022-09-29T10:53:56;11.10;99.90
12700;DHT22;6414;49.570;6.060;2022-09-29T10:56:45;11.10;99.90
12700;DHT22;6414;49.570;6.060;2022-09-29T10:59:30;11.00;99.90
12700;DHT22;6414;49.570;6.060;2022-09-29T11:02:34;11.20;99.90
12700;DHT22;6414;49.570;6.060;2022-09-29T11:05:14;11.20;99.90
12700;DHT22;6414;49.570;6.060;2022-09-29T11:07:50;11.20;99.90
12700;DHT22;6414;49.570;6.060;2022-09-29T11:10:36;11.50;99.90
12700;DHT22;6414;49.570;6.060;2022-09-29T11:16:17;11.70;99.90
12700;DHT22;6414;49.570;6.060;2022-09-29T11:19:08;11.90;99.90
12700;DHT22;6414;49.570;6.060;2022-09-29T11:25:28;11.80;99.90
12700;DHT22;6414;49.570;6.060;2022-09-29T11:28:54;11.70;99.90
12700;DHT22;6414;49.570;6.060;2022-09-29T11:31:25;11.80;99.90
12700;DHT22;6414;49.570;6.060;2022-09-29T11:34:44;12.30;99.90
12700;DHT22;6414;49.570;6.060;2022-09-29T11:37:38;12.30;99.90
12700;DHT22;6414;49.570;6.060;2022-09-29T11:40:24;12.10;99.90
12700;DHT22;6414;49.570;6.060;2022-09-29T11:43:26;11.90;99.90
12700;DHT22;6414;49.570;6.060;2022-09-29T11:49:49;12.20;99.90
12700;DHT22;6414;49.570;6.060;2022-09-29T11:52:42;11.80;99.90
12700;DHT22;6414;49.570;6.060;2022-09-29T12:04:33;11.80;99.90
12700;DHT22;6414;49.570;6.060;2022-09-29T12:07:20;11.90;99.90
12700;DHT22;6414;49.570;6.060;2022-09-29T12:10:31;11.90;99.90
12700;DHT22;6414;49.570;6.060;2022-09-29T12:16:19;11.10;99.90
12700;DHT22;6414;49.570;6.060;2022-09-29T12:19:13;10.20;99.90
12700;DHT22;6414;49.570;6.060;2022-09-29T12:21:58;9.70;99.90
12700;DHT22;6414;49.570;6.060;2022-09-29T12:24:49;9.50;99.90
12700;DHT22;6414;49.570;6.060;2022-09-29T12:27:35;9.20;99.90
12700;DHT22;6414;49.570;6.060;2022-09-29T12:30:29;9.10;99.90
12700;DHT22;6414;49.570;6.060;2022-09-29T12:33:16;8.80;99.90
12700;DHT22;6414;49.570;6.060;2022-09-29T12:36:14;8.80;99.90
12700;DHT22;6414;49.570;6.060;2022-09-29T12:38:55;8.60;99.90
12700;DHT22;6414;49.570;6.060;2022-09-29T12:41:40;8.50;99.90
12700;DHT22;6414;49.570;6.060;2022-09-29T12:44:36;8.50;99.90
12700;DHT22;6414;49.570;6.060;2022-09-29T12:47:22;8.60;99.90
12700;DHT22;6414;49.570;6.060;2022-09-29T12:50:08;8.70;99.90
12700;DHT22;6414;49.570;6.060;2022-09-29T12:55:58;9.10;99.90
12700;DHT22;6414;49.570;6.060;2022-09-29T12:58:43;9.40;99.90
12700;DHT22;6414;49.570;6.060;2022-09-29T13:01:29;9.40;99.90
12700;DHT22;6414;49.570;6.060;2022-09-29T13:04:39;9.30;99.90
12700;DHT22;6414;49.570;6.060;2022-09-29T13:16:51;10.30;99.90
12700;DHT22;6414;49.570;6.060;2022-09-29T13:19:58;10.30;99.90
12700;DHT22;6414;49.570;6.060;2022-09-29T13:22:54;10.40;99.90
12700;DHT22;6414;49.570;6.060;2022-09-29T13:25:52;10.50;99.90
12700;DHT22;6414;49.570;6.060;2022-09-29T13:28:36;10.60;99.90
12700;DHT22;6414;49.570;6.060;2022-09-29T13:31:22;11.00;99.90
12700;DHT22;6414;49.570;6.060;2022-09-29T13:34:04;11.10;99.90
12700;DHT22;6414;49.570;6.060;2022-09-29T13:36:50;10.90;99.90
12700;DHT22;6414;49.570;6.060;2022-09-29T13:39:36;10.80;99.90
12700;DHT22;6414;49.570;6.060;2022-09-29T13:43:05;10.80;99.90
12700;DHT22;6414;49.570;6.060;2022-09-29T13:45:33;10.60;99.90
12700;DHT22;6414;49.570;6.060;2022-09-29T13:51:20;10.60;99.90
12700;DHT22;6414;49.570;6.060;2022-09-29T13:53:47;10.90;99.90
12700;DHT22;6414;49.570;6.060;2022-09-29T13:56:33;11.30;99.90
12700;DHT22;6414;49.570;6.060;2022-09-29T13:59:20;11.30;99.90
12700;DHT22;6414;49.570;6.060;2022-09-29T14:08:13;11.00;99.90
12700;DHT22;6414;49.570;6.060;2022-09-29T14:11:05;11.20;99.90
12700;DHT22;6414;49.570;6.060;2022-09-29T14:14:14;11.30;99.90
12700;DHT22;6414;49.570;6.060;2022-09-29T14:16:45;11.40;99.90
12700;DHT22;6414;49.570;6.060;2022-09-29T14:28:12;11.70;99.90
12700;DHT22;6414;49.570;6.060;2022-09-29T14:30:57;11.50;99.90
12700;DHT22;6414;49.570;6.060;2022-09-29T14:33:42;11.70;99.90
12700;DHT22;6414;49.570;6.060;2022-09-29T14:36:27;11.60;99.90
12700;DHT22;6414;49.570;6.060;2022-09-29T14:39:13;11.70;99.90
12700;DHT22;6414;49.570;6.060;2022-09-29T14:41:59;11.70;99.90
12700;DHT22;6414;49.570;6.060;2022-09-29T14:44:44;11.70;99.90
12700;DHT22;6414;49.570;6.060;2022-09-29T14:48:04;11.60;99.90
12700;DHT22;6414;49.570;6.060;2022-09-29T14:51:27;11.50;99.90
12700;DHT22;6414;49.570;6.060;2022-09-29T14:54:17;11.50;99.90
12700;DHT22;6414;49.570;6.060;2022-09-29T14:57:18;11.50;99.90
12700;DHT22;6414;49.570;6.060;2022-09-29T15:00:13;11.50;99.90
12700;DHT22;6414;49.570;6.060;2022-09-29T15:02:57;11.50;99.90
12700;DHT22;6414;49.570;6.060;2022-09-29T15:05:43;11.40;99.90
12700;DHT22;6414;49.570;6.060;2022-09-29T15:08:28;11.40;99.90
12700;DHT22;6414;49.570;6.060;2022-09-29T15:11:32;11.30;99.90
12700;DHT22;6414;49.570;6.060;2022-09-29T15:14:21;11.50;99.90
12700;DHT22;6414;49.570;6.060;2022-09-29T15:17:17;11.30;99.90
12700;DHT22;6414;49.570;6.060;2022-09-29T15:23:10;11.50;99.90
12700;DHT22;6414;49.570;6.060;2022-09-29T15:25:53;11.60;99.90
12700;DHT22;6414;49.570;6.060;2022-09-29T15:28:38;11.50;99.90
12700;DHT22;6414;49.570;6.060;2022-09-29T15:31:29;11.50;99.90
12700;DHT22;6414;49.570;6.060;2022-09-29T15:34:16;11.40;99.90
12700;DHT22;6414;49.570;6.060;2022-09-29T15:36:57;11.40;99.90
12700;DHT22;6414;49.570;6.060;2022-09-29T15:39:47;11.20;99.90
12700;DHT22;6414;49.570;6.060;2022-09-29T15:42:32;11.20;99.90
12700;DHT22;6414;49.570;6.060;2022-09-29T15:45:19;11.20;99.90
12700;DHT22;6414;49.570;6.060;2022-09-29T15:48:04;11.20;99.90
12700;DHT22;6414;49.570;6.060;2022-09-29T15:50:49;11.20;99.90
12700;DHT22;6414;49.570;6.060;2022-09-29T15:53:35;11.20;99.90
12700;DHT22;6414;49.570;6.060;2022-09-29T15:56:20;11.40;99.90
12700;DHT22;6414;49.570;6.060;2022-09-29T15:59:07;11.40;99.90
12700;DHT22;6414;49.570;6.060;2022-09-29T16:01:52;11.20;99.90
12700;DHT22;6414;49.570;6.060;2022-09-29T16:04:38;11.10;99.90
12700;DHT22;6414;49.570;6.060;2022-09-29T16:07:24;11.00;99.90
12700;DHT22;6414;49.570;6.060;2022-09-29T16:10:12;10.90;99.90
12700;DHT22;6414;49.570;6.060;2022-09-29T16:13:04;10.80;99.90
12700;DHT22;6414;49.570;6.060;2022-09-29T16:15:46;10.70;99.90
12700;DHT22;6414;49.570;6.060;2022-09-29T16:18:37;10.60;99.90
12700;DHT22;6414;49.570;6.060;2022-09-29T16:21:21;10.50;99.90
12700;DHT22;6414;49.570;6.060;2022-09-29T16:24:14;10.40;99.90
12700;DHT22;6414;49.570;6.060;2022-09-29T16:26:57;10.50;99.90
12700;DHT22;6414;49.570;6.060;2022-09-29T16:29:43;10.40;99.90
12700;DHT22;6414;49.570;6.060;2022-09-29T16:35:36;10.40;99.90
12700;DHT22;6414;49.570;6.060;2022-09-29T16:38:31;10.30;99.90
12700;DHT22;6414;49.570;6.060;2022-09-29T16:41:29;10.20;99.90
12700;DHT22;6414;49.570;6.060;2022-09-29T16:47:25;10.10;99.90
12700;DHT22;6414;49.570;6.060;2022-09-29T16:50:12;10.20;99.90
12700;DHT22;6414;49.570;6.060;2022-09-29T16:52:56;10.10;99.90
12700;DHT22;6414;49.570;6.060;2022-09-29T16:55:42;9.90;99.90
12700;DHT22;6414;49.570;6.060;2022-09-29T16:58:27;9.80;99.90
12700;DHT22;6414;49.570;6.060;2022-09-29T17:01:12;9.70;99.90
12700;DHT22;6414;49.570;6.060;2022-09-29T17:03:57;9.60;99.90
12700;DHT22;6414;49.570;6.060;2022-09-29T17:06:44;9.50;99.90
12700;DHT22;6414;49.570;6.060;2022-09-29T17:09:28;9.50;99.90
12700;DHT22;6414;49.570;6.060;2022-09-29T17:12:14;9.40;99.90
12700;DHT22;6414;49.570;6.060;2022-09-29T17:14:59;9.40;99.90
12700;DHT22;6414;49.570;6.060;2022-09-29T17:17:46;9.00;99.90
12700;DHT22;6414;49.570;6.060;2022-09-29T17:20:31;9.00;99.90
12700;DHT22;6414;49.570;6.060;2022-09-29T17:23:16;8.90;99.90
12700;DHT22;6414;49.570;6.060;2022-09-29T17:26:02;8.90;99.90
12700;DHT22;6414;49.570;6.060;2022-09-29T17:28:48;8.80;99.90
12700;DHT22;6414;49.570;6.060;2022-09-29T17:31:34;8.60;99.90
12700;DHT22;6414;49.570;6.060;2022-09-29T17:34:19;8.60;99.90
12700;DHT22;6414;49.570;6.060;2022-09-29T17:37:07;8.60;99.90
12700;DHT22;6414;49.570;6.060;2022-09-29T17:39:52;8.60;99.90
12700;DHT22;6414;49.570;6.060;2022-09-29T17:42:38;8.60;99.90
12700;DHT22;6414;49.570;6.060;2022-09-29T17:45:23;8.50;99.90
12700;DHT22;6414;49.570;6.060;2022-09-29T17:48:09;8.50;99.90
12700;DHT22;6414;49.570;6.060;2022-09-29T17:50:54;8.40;99.90
12700;DHT22;6414;49.570;6.060;2022-09-29T17:53:40;8.20;99.90
12700;DHT22;6414;49.570;6.060;2022-09-29T17:56:25;8.00;99.90
12700;DHT22;6414;49.570;6.060;2022-09-29T17:59:10;7.90;99.90
12700;DHT22;6414;49.570;6.060;2022-09-29T18:01:56;7.90;99.90
12700;DHT22;6414;49.570;6.060;2022-09-29T18:04:41;7.90;99.90
12700;DHT22;6414;49.570;6.060;2022-09-29T18:07:27;7.90;99.90
12700;DHT22;6414;49.570;6.060;2022-09-29T18:10:21;8.00;99.90
12700;DHT22;6414;49.570;6.060;2022-09-29T18:13:05;7.90;99.90
12700;DHT22;6414;49.570;6.060;2022-09-29T18:15:50;7.90;99.90
12700;DHT22;6414;49.570;6.060;2022-09-29T18:18:36;7.90;99.90
12700;DHT22;6414;49.570;6.060;2022-09-29T18:21:21;7.70;99.90
12700;DHT22;6414;49.570;6.060;2022-09-29T18:24:07;7.70;99.90
12700;DHT22;6414;49.570;6.060;2022-09-29T18:26:52;7.70;99.90
12700;DHT22;6414;49.570;6.060;2022-09-29T18:29:37;7.60;99.90
12700;DHT22;6414;49.570;6.060;2022-09-29T18:32:22;7.50;99.90
12700;DHT22;6414;49.570;6.060;2022-09-29T18:35:10;7.50;99.90
12700;DHT22;6414;49.570;6.060;2022-09-29T18:37:54;7.70;99.90
12700;DHT22;6414;49.570;6.060;2022-09-29T18:40:40;7.60;99.90
12700;DHT22;6414;49.570;6.060;2022-09-29T18:43:25;7.60;99.90
12700;DHT22;6414;49.570;6.060;2022-09-29T18:46:10;7.50;99.90
12700;DHT22;6414;49.570;6.060;2022-09-29T18:48:56;7.40;99.90
12700;DHT22;6414;49.570;6.060;2022-09-29T18:51:41;7.50;99.90
12700;DHT22;6414;49.570;6.060;2022-09-29T18:54:26;7.40;99.90
12700;DHT22;6414;49.570;6.060;2022-09-29T18:57:13;7.00;99.90
12700;DHT22;6414;49.570;6.060;2022-09-29T18:59:58;7.00;99.90
12700;DHT22;6414;49.570;6.060;2022-09-29T19:02:44;6.90;99.90
12700;DHT22;6414;49.570;6.060;2022-09-29T19:05:30;6.90;99.90
12700;DHT22;6414;49.570;6.060;2022-09-29T19:08:15;6.90;99.90
12700;DHT22;6414;49.570;6.060;2022-09-29T19:11:00;7.00;99.90
12700;DHT22;6414;49.570;6.060;2022-09-29T19:13:45;6.90;99.90
12700;DHT22;6414;49.570;6.060;2022-09-29T19:16:30;6.80;99.90
12700;DHT22;6414;49.570;6.060;2022-09-29T19:19:16;6.60;99.90
12700;DHT22;6414;49.570;6.060;2022-09-29T19:22:02;6.80;99.90
12700;DHT22;6414;49.570;6.060;2022-09-29T19:24:48;6.80;99.90
12700;DHT22;6414;49.570;6.060;2022-09-29T19:27:33;6.90;99.90
12700;DHT22;6414;49.570;6.060;2022-09-29T19:30:19;6.80;99.90
12700;DHT22;6414;49.570;6.060;2022-09-29T19:33:04;6.60;99.90
12700;DHT22;6414;49.570;6.060;2022-09-29T19:35:51;6.60;99.90
12700;DHT22;6414;49.570;6.060;2022-09-29T19:38:35;6.50;99.90
12700;DHT22;6414;49.570;6.060;2022-09-29T19:41:20;6.20;99.90